sensor_id;sensor_type;location;lat;lon;timestamp;P1;durP1;ratioP1;P2;durP2;ratioP2
56329;SDS011;42236;48.058;10.632;2023-06-10T00:02:44;9.55;;;6.55;;
56329;SDS011;42236;48.058;10.632;2023-06-10T00:05:30;7.85;;;6.18;;
56329;SDS011;42236;48.058;10.632;2023-06-10T00:08:16;8.82;;;6.63;;
56329;SDS011;42236;48.058;10.632;2023-06-10T00:11:04;9.73;;;7.47;;
56329;SDS011;42236;48.058;10.632;2023-06-10T00:13:50;6.35;;;5.57;;
56329;SDS011;42236;48.058;10.632;2023-06-10T00:16:36;7.53;;;6.55;;
56329;SDS011;42236;48.058;10.632;2023-06-10T00:19:22;8.85;;;6.00;;
56329;SDS011;42236;48.058;10.632;2023-06-10T00:22:10;10.88;;;6.78;;
56329;SDS011;42236;48.058;10.632;2023-06-10T00:24:57;6.63;;;6.03;;
56329;SDS011;42236;48.058;10.632;2023-06-10T00:27:43;8.35;;;6.63;;
56329;SDS011;42236;48.058;10.632;2023-06-10T00:30:28;9.13;;;6.43;;
56329;SDS011;42236;48.058;10.632;2023-06-10T00:33:14;8.13;;;7.22;;
56329;SDS011;42236;48.058;10.632;2023-06-10T00:36:00;14.07;;;7.25;;
56329;SDS011;42236;48.058;10.632;2023-06-10T00:38:46;7.45;;;6.65;;
56329;SDS011;42236;48.058;10.632;2023-06-10T00:41:31;8.73;;;7.22;;
56329;SDS011;42236;48.058;10.632;2023-06-10T00:44:19;7.32;;;6.65;;
56329;SDS011;42236;48.058;10.632;2023-06-10T00:47:05;8.05;;;7.30;;
56329;SDS011;42236;48.058;10.632;2023-06-10T00:49:51;7.13;;;6.43;;
56329;SDS011;42236;48.058;10.632;2023-06-10T00:52:37;7.90;;;7.10;;
56329;SDS011;42236;48.058;10.632;2023-06-10T00:55:23;11.60;;;7.65;;
56329;SDS011;42236;48.058;10.632;2023-06-10T00:58:10;8.77;;;7.50;;
56329;SDS011;42236;48.058;10.632;2023-06-10T01:00:56;8.52;;;7.63;;
56329;SDS011;42236;48.058;10.632;2023-06-10T01:03:43;8.85;;;7.72;;
56329;SDS011;42236;48.058;10.632;2023-06-10T01:12:19;8.45;;;7.63;;
56329;SDS011;42236;48.058;10.632;2023-06-10T01:15:12;7.72;;;7.00;;
56329;SDS011;42236;48.058;10.632;2023-06-10T01:17:59;9.95;;;6.85;;
56329;SDS011;42236;48.058;10.632;2023-06-10T01:20:47;7.60;;;6.80;;
56329;SDS011;42236;48.058;10.632;2023-06-10T01:23:34;8.30;;;7.50;;
56329;SDS011;42236;48.058;10.632;2023-06-10T01:26:20;8.02;;;7.22;;
56329;SDS011;42236;48.058;10.632;2023-06-10T01:29:14;8.80;;;7.90;;
56329;SDS011;42236;48.058;10.632;2023-06-10T01:32:06;8.73;;;7.22;;
56329;SDS011;42236;48.058;10.632;2023-06-10T01:34:54;9.68;;;8.70;;
56329;SDS011;42236;48.058;10.632;2023-06-10T01:37:41;8.45;;;7.57;;
56329;SDS011;42236;48.058;10.632;2023-06-10T01:40:30;8.75;;;7.28;;
56329;SDS011;42236;48.058;10.632;2023-06-10T01:43:17;10.63;;;8.05;;
56329;SDS011;42236;48.058;10.632;2023-06-10T01:46:03;10.13;;;7.45;;
56329;SDS011;42236;48.058;10.632;2023-06-10T01:48:48;8.23;;;7.53;;
56329;SDS011;42236;48.058;10.632;2023-06-10T01:51:34;9.15;;;7.80;;
56329;SDS011;42236;48.058;10.632;2023-06-10T01:54:20;7.75;;;6.97;;
56329;SDS011;42236;48.058;10.632;2023-06-10T01:57:05;9.25;;;7.88;;
56329;SDS011;42236;48.058;10.632;2023-06-10T01:59:51;7.85;;;7.05;;
56329;SDS011;42236;48.058;10.632;2023-06-10T02:02:37;6.72;;;6.13;;
56329;SDS011;42236;48.058;10.632;2023-06-10T02:05:23;9.73;;;6.93;;
56329;SDS011;42236;48.058;10.632;2023-06-10T02:08:08;7.82;;;7.03;;
56329;SDS011;42236;48.058;10.632;2023-06-10T02:10:54;8.43;;;6.78;;
56329;SDS011;42236;48.058;10.632;2023-06-10T02:13:40;10.32;;;7.57;;
56329;SDS011;42236;48.058;10.632;2023-06-10T02:16:25;7.75;;;6.90;;
56329;SDS011;42236;48.058;10.632;2023-06-10T02:19:12;7.10;;;6.43;;
56329;SDS011;42236;48.058;10.632;2023-06-10T02:21:58;9.02;;;7.43;;
56329;SDS011;42236;48.058;10.632;2023-06-10T02:24:43;7.97;;;7.13;;
56329;SDS011;42236;48.058;10.632;2023-06-10T02:27:29;7.90;;;7.18;;
56329;SDS011;42236;48.058;10.632;2023-06-10T02:30:18;7.55;;;6.85;;
56329;SDS011;42236;48.058;10.632;2023-06-10T02:33:04;7.72;;;6.97;;
56329;SDS011;42236;48.058;10.632;2023-06-10T02:35:50;8.13;;;7.32;;
56329;SDS011;42236;48.058;10.632;2023-06-10T02:38:36;8.95;;;8.05;;
56329;SDS011;42236;48.058;10.632;2023-06-10T02:41:21;8.90;;;8.00;;
56329;SDS011;42236;48.058;10.632;2023-06-10T02:44:07;8.65;;;7.13;;
56329;SDS011;42236;48.058;10.632;2023-06-10T02:46:53;8.95;;;7.40;;
56329;SDS011;42236;48.058;10.632;2023-06-10T02:49:38;9.85;;;7.75;;
56329;SDS011;42236;48.058;10.632;2023-06-10T02:52:25;8.13;;;7.07;;
56329;SDS011;42236;48.058;10.632;2023-06-10T02:55:11;9.35;;;8.20;;
56329;SDS011;42236;48.058;10.632;2023-06-10T02:57:56;9.05;;;7.53;;
56329;SDS011;42236;48.058;10.632;2023-06-10T03:00:42;13.30;;;7.20;;
56329;SDS011;42236;48.058;10.632;2023-06-10T03:03:28;9.40;;;7.32;;
56329;SDS011;42236;48.058;10.632;2023-06-10T03:06:15;16.63;;;7.53;;
56329;SDS011;42236;48.058;10.632;2023-06-10T03:09:02;8.38;;;7.20;;
56329;SDS011;42236;48.058;10.632;2023-06-10T03:11:49;11.00;;;8.43;;
56329;SDS011;42236;48.058;10.632;2023-06-10T03:14:35;9.55;;;7.93;;
56329;SDS011;42236;48.058;10.632;2023-06-10T03:17:21;9.98;;;6.93;;
56329;SDS011;42236;48.058;10.632;2023-06-10T03:20:07;8.48;;;7.57;;
56329;SDS011;42236;48.058;10.632;2023-06-10T03:22:55;9.82;;;7.38;;
56329;SDS011;42236;48.058;10.632;2023-06-10T03:25:41;8.60;;;7.50;;
56329;SDS011;42236;48.058;10.632;2023-06-10T03:28:26;7.97;;;7.28;;
56329;SDS011;42236;48.058;10.632;2023-06-10T03:31:12;12.30;;;7.25;;
56329;SDS011;42236;48.058;10.632;2023-06-10T03:33:58;10.00;;;8.27;;
56329;SDS011;42236;48.058;10.632;2023-06-10T03:36:43;9.20;;;8.15;;
56329;SDS011;42236;48.058;10.632;2023-06-10T03:39:29;10.50;;;7.65;;
56329;SDS011;42236;48.058;10.632;2023-06-10T03:42:15;8.93;;;7.65;;
56329;SDS011;42236;48.058;10.632;2023-06-10T03:45:01;8.45;;;7.55;;
56329;SDS011;42236;48.058;10.632;2023-06-10T03:47:48;9.73;;;7.55;;
56329;SDS011;42236;48.058;10.632;2023-06-10T03:50:34;8.50;;;7.28;;
56329;SDS011;42236;48.058;10.632;2023-06-10T03:53:21;8.20;;;7.35;;
56329;SDS011;42236;48.058;10.632;2023-06-10T03:56:07;8.80;;;6.82;;
56329;SDS011;42236;48.058;10.632;2023-06-10T03:58:53;8.38;;;7.55;;
56329;SDS011;42236;48.058;10.632;2023-06-10T04:01:38;9.13;;;8.05;;
56329;SDS011;42236;48.058;10.632;2023-06-10T04:04:26;7.63;;;6.88;;
56329;SDS011;42236;48.058;10.632;2023-06-10T04:07:12;8.13;;;7.07;;
56329;SDS011;42236;48.058;10.632;2023-06-10T04:09:59;7.38;;;6.68;;
56329;SDS011;42236;48.058;10.632;2023-06-10T04:12:45;8.10;;;6.63;;
56329;SDS011;42236;48.058;10.632;2023-06-10T04:15:30;7.72;;;6.93;;
56329;SDS011;42236;48.058;10.632;2023-06-10T04:18:18;8.50;;;6.75;;
56329;SDS011;42236;48.058;10.632;2023-06-10T04:21:04;6.90;;;5.90;;
56329;SDS011;42236;48.058;10.632;2023-06-10T04:23:50;8.18;;;6.55;;
56329;SDS011;42236;48.058;10.632;2023-06-10T04:26:36;7.38;;;6.68;;
56329;SDS011;42236;48.058;10.632;2023-06-10T04:29:22;7.22;;;6.53;;
56329;SDS011;42236;48.058;10.632;2023-06-10T04:32:08;7.20;;;6.35;;
56329;SDS011;42236;48.058;10.632;2023-06-10T04:34:53;7.15;;;6.43;;
56329;SDS011;42236;48.058;10.632;2023-06-10T04:37:39;6.93;;;6.22;;
56329;SDS011;42236;48.058;10.632;2023-06-10T04:40:26;6.50;;;5.25;;
56329;SDS011;42236;48.058;10.632;2023-06-10T04:43:12;6.18;;;5.50;;
56329;SDS011;42236;48.058;10.632;2023-06-10T04:45:58;8.55;;;6.20;;
56329;SDS011;42236;48.058;10.632;2023-06-10T04:48:44;6.50;;;5.90;;
56329;SDS011;42236;48.058;10.632;2023-06-10T04:51:33;6.72;;;6.03;;
56329;SDS011;42236;48.058;10.632;2023-06-10T04:54:19;6.32;;;5.75;;
56329;SDS011;42236;48.058;10.632;2023-06-10T04:57:05;6.57;;;5.53;;
56329;SDS011;42236;48.058;10.632;2023-06-10T04:59:53;6.97;;;6.28;;
56329;SDS011;42236;48.058;10.632;2023-06-10T05:02:38;7.97;;;5.90;;
56329;SDS011;42236;48.058;10.632;2023-06-10T05:05:24;6.65;;;6.03;;
56329;SDS011;42236;48.058;10.632;2023-06-10T05:08:10;6.82;;;6.05;;
56329;SDS011;42236;48.058;10.632;2023-06-10T05:10:55;9.05;;;6.20;;
56329;SDS011;42236;48.058;10.632;2023-06-10T05:13:41;6.32;;;5.63;;
56329;SDS011;42236;48.058;10.632;2023-06-10T05:16:28;7.32;;;5.72;;
56329;SDS011;42236;48.058;10.632;2023-06-10T05:19:13;7.32;;;6.38;;
56329;SDS011;42236;48.058;10.632;2023-06-10T05:22:01;7.53;;;6.13;;
56329;SDS011;42236;48.058;10.632;2023-06-10T05:24:48;7.03;;;6.35;;
56329;SDS011;42236;48.058;10.632;2023-06-10T05:27:33;6.57;;;5.97;;
56329;SDS011;42236;48.058;10.632;2023-06-10T05:30:19;7.28;;;6.03;;
56329;SDS011;42236;48.058;10.632;2023-06-10T05:33:05;7.95;;;5.93;;
56329;SDS011;42236;48.058;10.632;2023-06-10T05:35:50;7.88;;;6.47;;
56329;SDS011;42236;48.058;10.632;2023-06-10T05:38:36;7.00;;;6.30;;
56329;SDS011;42236;48.058;10.632;2023-06-10T05:41:22;7.20;;;6.47;;
56329;SDS011;42236;48.058;10.632;2023-06-10T05:44:07;7.22;;;6.50;;
56329;SDS011;42236;48.058;10.632;2023-06-10T05:46:53;6.65;;;6.05;;
56329;SDS011;42236;48.058;10.632;2023-06-10T05:49:39;6.43;;;5.70;;
56329;SDS011;42236;48.058;10.632;2023-06-10T05:52:25;7.43;;;6.60;;
56329;SDS011;42236;48.058;10.632;2023-06-10T05:55:11;5.75;;;5.22;;
56329;SDS011;42236;48.058;10.632;2023-06-10T05:58:00;8.40;;;6.43;;
56329;SDS011;42236;48.058;10.632;2023-06-10T06:00:46;6.15;;;5.55;;
56329;SDS011;42236;48.058;10.632;2023-06-10T06:03:31;8.80;;;5.78;;
56329;SDS011;42236;48.058;10.632;2023-06-10T06:06:17;6.78;;;6.07;;
56329;SDS011;42236;48.058;10.632;2023-06-10T06:09:05;7.15;;;6.45;;
56329;SDS011;42236;48.058;10.632;2023-06-10T06:11:51;6.82;;;5.32;;
56329;SDS011;42236;48.058;10.632;2023-06-10T06:14:37;9.02;;;6.35;;
56329;SDS011;42236;48.058;10.632;2023-06-10T06:17:26;7.95;;;6.30;;
56329;SDS011;42236;48.058;10.632;2023-06-10T06:20:12;6.40;;;5.55;;
56329;SDS011;42236;48.058;10.632;2023-06-10T06:22:58;6.78;;;5.88;;
56329;SDS011;42236;48.058;10.632;2023-06-10T06:25:44;7.40;;;6.13;;
56329;SDS011;42236;48.058;10.632;2023-06-10T06:28:29;7.28;;;6.28;;
56329;SDS011;42236;48.058;10.632;2023-06-10T06:31:16;6.97;;;6.28;;
56329;SDS011;42236;48.058;10.632;2023-06-10T06:34:05;7.50;;;6.38;;
56329;SDS011;42236;48.058;10.632;2023-06-10T06:36:50;6.10;;;5.55;;
56329;SDS011;42236;48.058;10.632;2023-06-10T06:39:36;5.93;;;5.32;;
56329;SDS011;42236;48.058;10.632;2023-06-10T06:42:22;6.43;;;5.82;;
56329;SDS011;42236;48.058;10.632;2023-06-10T06:45:08;6.75;;;6.10;;
56329;SDS011;42236;48.058;10.632;2023-06-10T06:47:54;7.15;;;6.43;;
56329;SDS011;42236;48.058;10.632;2023-06-10T06:50:41;6.38;;;5.78;;
56329;SDS011;42236;48.058;10.632;2023-06-10T06:53:27;6.95;;;6.25;;
56329;SDS011;42236;48.058;10.632;2023-06-10T06:56:13;7.55;;;6.85;;
56329;SDS011;42236;48.058;10.632;2023-06-10T06:58:58;8.00;;;6.45;;
56329;SDS011;42236;48.058;10.632;2023-06-10T07:01:44;7.70;;;6.90;;
56329;SDS011;42236;48.058;10.632;2023-06-10T07:04:31;10.82;;;6.53;;
56329;SDS011;42236;48.058;10.632;2023-06-10T07:07:17;7.07;;;6.38;;
56329;SDS011;42236;48.058;10.632;2023-06-10T07:10:02;7.38;;;6.60;;
56329;SDS011;42236;48.058;10.632;2023-06-10T07:12:48;7.55;;;6.53;;
56329;SDS011;42236;48.058;10.632;2023-06-10T07:15:34;7.53;;;6.40;;
56329;SDS011;42236;48.058;10.632;2023-06-10T07:18:20;7.10;;;5.82;;
56329;SDS011;42236;48.058;10.632;2023-06-10T07:21:05;6.80;;;6.20;;
56329;SDS011;42236;48.058;10.632;2023-06-10T07:23:51;6.50;;;5.68;;
56329;SDS011;42236;48.058;10.632;2023-06-10T07:26:38;6.72;;;5.75;;
56329;SDS011;42236;48.058;10.632;2023-06-10T07:29:24;7.50;;;6.43;;
56329;SDS011;42236;48.058;10.632;2023-06-10T07:32:10;6.18;;;5.40;;
56329;SDS011;42236;48.058;10.632;2023-06-10T07:34:56;5.97;;;4.93;;
56329;SDS011;42236;48.058;10.632;2023-06-10T07:37:41;6.20;;;5.32;;
56329;SDS011;42236;48.058;10.632;2023-06-10T07:40:27;5.95;;;5.38;;
56329;SDS011;42236;48.058;10.632;2023-06-10T07:43:13;5.63;;;5.10;;
56329;SDS011;42236;48.058;10.632;2023-06-10T07:45:58;5.47;;;4.95;;
56329;SDS011;42236;48.058;10.632;2023-06-10T07:48:45;4.88;;;4.40;;
56329;SDS011;42236;48.058;10.632;2023-06-10T07:51:31;6.85;;;5.70;;
56329;SDS011;42236;48.058;10.632;2023-06-10T07:54:16;8.00;;;5.75;;
56329;SDS011;42236;48.058;10.632;2023-06-10T07:57:02;5.18;;;4.68;;
56329;SDS011;42236;48.058;10.632;2023-06-10T07:59:48;6.43;;;5.40;;
56329;SDS011;42236;48.058;10.632;2023-06-10T08:02:34;5.97;;;4.35;;
56329;SDS011;42236;48.058;10.632;2023-06-10T08:05:20;4.80;;;4.30;;
56329;SDS011;42236;48.058;10.632;2023-06-10T08:08:06;3.63;;;3.33;;
56329;SDS011;42236;48.058;10.632;2023-06-10T08:10:51;4.30;;;3.63;;
56329;SDS011;42236;48.058;10.632;2023-06-10T08:13:37;4.70;;;3.60;;
56329;SDS011;42236;48.058;10.632;2023-06-10T08:16:26;3.55;;;3.03;;
56329;SDS011;42236;48.058;10.632;2023-06-10T08:19:12;4.50;;;3.30;;
56329;SDS011;42236;48.058;10.632;2023-06-10T08:22:01;2.83;;;2.50;;
56329;SDS011;42236;48.058;10.632;2023-06-10T08:24:47;3.63;;;3.25;;
56329;SDS011;42236;48.058;10.632;2023-06-10T08:27:33;3.05;;;2.85;;
56329;SDS011;42236;48.058;10.632;2023-06-10T08:30:22;4.75;;;3.03;;
56329;SDS011;42236;48.058;10.632;2023-06-10T08:36:31;2.53;;;2.33;;
56329;SDS011;42236;48.058;10.632;2023-06-10T08:39:17;3.92;;;3.63;;
56329;SDS011;42236;48.058;10.632;2023-06-10T08:45:12;4.18;;;3.65;;
56329;SDS011;42236;48.058;10.632;2023-06-10T08:48:03;5.20;;;3.25;;
56329;SDS011;42236;48.058;10.632;2023-06-10T08:50:52;3.00;;;2.80;;
56329;SDS011;42236;48.058;10.632;2023-06-10T08:53:42;3.75;;;3.42;;
56329;SDS011;42236;48.058;10.632;2023-06-10T08:57:20;3.72;;;3.40;;
56329;SDS011;42236;48.058;10.632;2023-06-10T09:00:09;4.10;;;3.75;;
56329;SDS011;42236;48.058;10.632;2023-06-10T09:06:15;4.93;;;3.15;;
56329;SDS011;42236;48.058;10.632;2023-06-10T09:09:05;3.72;;;3.03;;
56329;SDS011;42236;48.058;10.632;2023-06-10T09:11:52;3.20;;;2.90;;
56329;SDS011;42236;48.058;10.632;2023-06-10T09:14:38;4.05;;;3.38;;
56329;SDS011;42236;48.058;10.632;2023-06-10T09:17:24;4.90;;;3.85;;
56329;SDS011;42236;48.058;10.632;2023-06-10T09:20:10;5.80;;;3.83;;
56329;SDS011;42236;48.058;10.632;2023-06-10T09:23:00;3.83;;;3.05;;
56329;SDS011;42236;48.058;10.632;2023-06-10T09:25:48;3.65;;;2.97;;
56329;SDS011;42236;48.058;10.632;2023-06-10T09:28:47;4.10;;;3.05;;
56329;SDS011;42236;48.058;10.632;2023-06-10T09:31:35;3.50;;;3.20;;
56329;SDS011;42236;48.058;10.632;2023-06-10T09:34:24;5.53;;;3.65;;
56329;SDS011;42236;48.058;10.632;2023-06-10T09:37:11;4.10;;;3.40;;
56329;SDS011;42236;48.058;10.632;2023-06-10T09:40:02;4.82;;;3.10;;
56329;SDS011;42236;48.058;10.632;2023-06-10T09:42:54;2.85;;;2.63;;
56329;SDS011;42236;48.058;10.632;2023-06-10T09:45:41;3.65;;;3.20;;
56329;SDS011;42236;48.058;10.632;2023-06-10T09:48:28;3.03;;;2.83;;
56329;SDS011;42236;48.058;10.632;2023-06-10T09:51:14;2.85;;;2.55;;
56329;SDS011;42236;48.058;10.632;2023-06-10T09:54:03;3.00;;;2.67;;
56329;SDS011;42236;48.058;10.632;2023-06-10T09:56:50;3.85;;;2.30;;
56329;SDS011;42236;48.058;10.632;2023-06-10T09:59:37;2.78;;;2.58;;
56329;SDS011;42236;48.058;10.632;2023-06-10T10:02:23;4.18;;;2.80;;
56329;SDS011;42236;48.058;10.632;2023-06-10T10:05:08;3.00;;;2.80;;
56329;SDS011;42236;48.058;10.632;2023-06-10T10:07:54;5.97;;;2.42;;
56329;SDS011;42236;48.058;10.632;2023-06-10T10:10:41;2.65;;;2.45;;
56329;SDS011;42236;48.058;10.632;2023-06-10T10:13:27;3.70;;;2.90;;
56329;SDS011;42236;48.058;10.632;2023-06-10T10:16:16;2.85;;;2.65;;
56329;SDS011;42236;48.058;10.632;2023-06-10T10:19:07;2.85;;;2.65;;
56329;SDS011;42236;48.058;10.632;2023-06-10T10:21:56;3.38;;;2.63;;
56329;SDS011;42236;48.058;10.632;2023-06-10T10:24:49;2.63;;;2.42;;
56329;SDS011;42236;48.058;10.632;2023-06-10T10:27:43;2.40;;;2.20;;
56329;SDS011;42236;48.058;10.632;2023-06-10T10:30:39;2.88;;;2.67;;
56329;SDS011;42236;48.058;10.632;2023-06-10T10:33:40;2.40;;;2.20;;
56329;SDS011;42236;48.058;10.632;2023-06-10T10:36:31;2.78;;;2.58;;
56329;SDS011;42236;48.058;10.632;2023-06-10T10:39:16;2.75;;;1.85;;
56329;SDS011;42236;48.058;10.632;2023-06-10T10:42:04;2.60;;;2.40;;
56329;SDS011;42236;48.058;10.632;2023-06-10T10:44:54;2.13;;;1.92;;
56329;SDS011;42236;48.058;10.632;2023-06-10T10:47:41;1.75;;;1.65;;
56329;SDS011;42236;48.058;10.632;2023-06-10T10:50:30;2.33;;;2.13;;
56329;SDS011;42236;48.058;10.632;2023-06-10T10:53:19;1.73;;;1.63;;
56329;SDS011;42236;48.058;10.632;2023-06-10T10:59:05;2.70;;;2.13;;
56329;SDS011;42236;48.058;10.632;2023-06-10T11:01:51;2.53;;;2.33;;
56329;SDS011;42236;48.058;10.632;2023-06-10T11:04:38;2.05;;;1.90;;
56329;SDS011;42236;48.058;10.632;2023-06-10T11:07:30;1.90;;;1.80;;
56329;SDS011;42236;48.058;10.632;2023-06-10T11:10:17;2.80;;;1.73;;
56329;SDS011;42236;48.058;10.632;2023-06-10T11:13:21;1.95;;;1.80;;
56329;SDS011;42236;48.058;10.632;2023-06-10T11:16:07;1.88;;;1.77;;
56329;SDS011;42236;48.058;10.632;2023-06-10T11:18:55;1.85;;;1.75;;
56329;SDS011;42236;48.058;10.632;2023-06-10T11:21:57;1.83;;;1.67;;
56329;SDS011;42236;48.058;10.632;2023-06-10T11:24:49;1.38;;;1.27;;
56329;SDS011;42236;48.058;10.632;2023-06-10T11:27:38;1.40;;;1.30;;
56329;SDS011;42236;48.058;10.632;2023-06-10T11:30:27;2.88;;;2.15;;
56329;SDS011;42236;48.058;10.632;2023-06-10T11:33:20;1.30;;;1.30;;
56329;SDS011;42236;48.058;10.632;2023-06-10T11:36:06;1.27;;;1.25;;
56329;SDS011;42236;48.058;10.632;2023-06-10T11:38:54;2.13;;;1.40;;
56329;SDS011;42236;48.058;10.632;2023-06-10T11:41:42;1.35;;;1.25;;
56329;SDS011;42236;48.058;10.632;2023-06-10T11:44:28;1.30;;;1.20;;
56329;SDS011;42236;48.058;10.632;2023-06-10T11:47:14;1.55;;;1.20;;
56329;SDS011;42236;48.058;10.632;2023-06-10T11:50:00;1.55;;;1.40;;
56329;SDS011;42236;48.058;10.632;2023-06-10T11:52:45;1.48;;;1.35;;
56329;SDS011;42236;48.058;10.632;2023-06-10T11:55:42;1.80;;;1.38;;
56329;SDS011;42236;48.058;10.632;2023-06-10T11:58:28;2.15;;;1.63;;
56329;SDS011;42236;48.058;10.632;2023-06-10T12:01:18;1.60;;;1.50;;
56329;SDS011;42236;48.058;10.632;2023-06-10T12:04:07;1.50;;;1.40;;
56329;SDS011;42236;48.058;10.632;2023-06-10T12:06:54;1.40;;;1.30;;
56329;SDS011;42236;48.058;10.632;2023-06-10T12:09:40;2.20;;;1.40;;
56329;SDS011;42236;48.058;10.632;2023-06-10T12:12:26;1.90;;;1.75;;
56329;SDS011;42236;48.058;10.632;2023-06-10T12:15:19;3.95;;;1.30;;
56329;SDS011;42236;48.058;10.632;2023-06-10T12:18:19;2.17;;;1.20;;
56329;SDS011;42236;48.058;10.632;2023-06-10T12:24:08;0.95;;;0.90;;
56329;SDS011;42236;48.058;10.632;2023-06-10T12:26:54;0.82;;;0.82;;
56329;SDS011;42236;48.058;10.632;2023-06-10T12:29:50;1.35;;;1.25;;
56329;SDS011;42236;48.058;10.632;2023-06-10T12:32:40;1.33;;;1.23;;
56329;SDS011;42236;48.058;10.632;2023-06-10T12:35:29;1.40;;;1.30;;
56329;SDS011;42236;48.058;10.632;2023-06-10T12:38:19;1.20;;;1.10;;
56329;SDS011;42236;48.058;10.632;2023-06-10T12:41:07;1.30;;;1.20;;
56329;SDS011;42236;48.058;10.632;2023-06-10T12:43:53;1.40;;;1.30;;
56329;SDS011;42236;48.058;10.632;2023-06-10T12:46:39;1.58;;;1.48;;
56329;SDS011;42236;48.058;10.632;2023-06-10T12:49:25;1.40;;;1.30;;
56329;SDS011;42236;48.058;10.632;2023-06-10T12:52:11;1.17;;;1.10;;
56329;SDS011;42236;48.058;10.632;2023-06-10T12:54:57;1.10;;;1.00;;
56329;SDS011;42236;48.058;10.632;2023-06-10T12:57:49;2.45;;;1.25;;
56329;SDS011;42236;48.058;10.632;2023-06-10T13:00:35;1.92;;;1.40;;
56329;SDS011;42236;48.058;10.632;2023-06-10T13:03:21;2.47;;;1.50;;
56329;SDS011;42236;48.058;10.632;2023-06-10T13:06:07;3.15;;;1.73;;
56329;SDS011;42236;48.058;10.632;2023-06-10T13:08:53;2.25;;;2.15;;
56329;SDS011;42236;48.058;10.632;2023-06-10T13:11:38;2.10;;;1.70;;
56329;SDS011;42236;48.058;10.632;2023-06-10T13:14:24;4.25;;;2.05;;
56329;SDS011;42236;48.058;10.632;2023-06-10T13:17:10;1.70;;;1.60;;
56329;SDS011;42236;48.058;10.632;2023-06-10T13:19:55;1.52;;;1.42;;
56329;SDS011;42236;48.058;10.632;2023-06-10T13:22:41;1.73;;;1.45;;
56329;SDS011;42236;48.058;10.632;2023-06-10T13:25:27;2.17;;;1.75;;
56329;SDS011;42236;48.058;10.632;2023-06-10T13:28:13;1.88;;;1.77;;
56329;SDS011;42236;48.058;10.632;2023-06-10T13:30:59;3.78;;;3.38;;
56329;SDS011;42236;48.058;10.632;2023-06-10T13:33:44;1.90;;;1.80;;
56329;SDS011;42236;48.058;10.632;2023-06-10T13:36:30;3.25;;;2.38;;
56329;SDS011;42236;48.058;10.632;2023-06-10T13:39:16;1.73;;;1.63;;
56329;SDS011;42236;48.058;10.632;2023-06-10T13:42:01;2.53;;;2.05;;
56329;SDS011;42236;48.058;10.632;2023-06-10T13:44:47;2.45;;;2.05;;
56329;SDS011;42236;48.058;10.632;2023-06-10T13:47:33;2.20;;;1.98;;
56329;SDS011;42236;48.058;10.632;2023-06-10T13:50:19;2.20;;;2.00;;
56329;SDS011;42236;48.058;10.632;2023-06-10T13:53:05;2.22;;;2.13;;
56329;SDS011;42236;48.058;10.632;2023-06-10T13:55:51;3.00;;;1.85;;
56329;SDS011;42236;48.058;10.632;2023-06-10T13:58:36;1.90;;;1.80;;
56329;SDS011;42236;48.058;10.632;2023-06-10T14:01:24;2.13;;;2.00;;
56329;SDS011;42236;48.058;10.632;2023-06-10T14:04:10;2.50;;;2.05;;
56329;SDS011;42236;48.058;10.632;2023-06-10T14:06:56;2.20;;;2.00;;
56329;SDS011;42236;48.058;10.632;2023-06-10T14:09:42;1.80;;;1.70;;
56329;SDS011;42236;48.058;10.632;2023-06-10T14:12:28;1.90;;;1.80;;
56329;SDS011;42236;48.058;10.632;2023-06-10T14:15:14;2.30;;;2.10;;
56329;SDS011;42236;48.058;10.632;2023-06-10T14:18:00;2.67;;;1.90;;
56329;SDS011;42236;48.058;10.632;2023-06-10T14:20:46;1.90;;;1.75;;
56329;SDS011;42236;48.058;10.632;2023-06-10T14:23:31;2.30;;;1.98;;
56329;SDS011;42236;48.058;10.632;2023-06-10T14:26:17;2.30;;;2.10;;
56329;SDS011;42236;48.058;10.632;2023-06-10T14:29:03;2.28;;;2.17;;
56329;SDS011;42236;48.058;10.632;2023-06-10T14:31:48;2.33;;;2.13;;
56329;SDS011;42236;48.058;10.632;2023-06-10T14:34:34;1.92;;;1.83;;
56329;SDS011;42236;48.058;10.632;2023-06-10T14:37:20;2.40;;;2.20;;
56329;SDS011;42236;48.058;10.632;2023-06-10T14:40:06;2.28;;;2.08;;
56329;SDS011;42236;48.058;10.632;2023-06-10T14:42:52;3.63;;;2.03;;
56329;SDS011;42236;48.058;10.632;2023-06-10T14:45:38;1.80;;;1.70;;
56329;SDS011;42236;48.058;10.632;2023-06-10T14:48:25;2.03;;;1.75;;
56329;SDS011;42236;48.058;10.632;2023-06-10T14:51:11;2.53;;;2.33;;
56329;SDS011;42236;48.058;10.632;2023-06-10T14:53:56;2.13;;;2.00;;
56329;SDS011;42236;48.058;10.632;2023-06-10T14:56:43;1.65;;;1.55;;
56329;SDS011;42236;48.058;10.632;2023-06-10T14:59:29;2.53;;;2.33;;
56329;SDS011;42236;48.058;10.632;2023-06-10T15:02:15;2.40;;;1.70;;
56329;SDS011;42236;48.058;10.632;2023-06-10T15:05:00;2.20;;;2.00;;
56329;SDS011;42236;48.058;10.632;2023-06-10T15:07:46;2.20;;;2.00;;
56329;SDS011;42236;48.058;10.632;2023-06-10T15:10:32;1.90;;;1.80;;
56329;SDS011;42236;48.058;10.632;2023-06-10T15:13:17;2.42;;;1.73;;
56329;SDS011;42236;48.058;10.632;2023-06-10T15:16:03;2.13;;;1.92;;
56329;SDS011;42236;48.058;10.632;2023-06-10T15:18:49;2.25;;;1.60;;
56329;SDS011;42236;48.058;10.632;2023-06-10T15:21:35;2.70;;;2.47;;
56329;SDS011;42236;48.058;10.632;2023-06-10T15:24:21;2.08;;;1.90;;
56329;SDS011;42236;48.058;10.632;2023-06-10T15:27:07;2.58;;;2.38;;
56329;SDS011;42236;48.058;10.632;2023-06-10T15:29:53;3.33;;;2.03;;
56329;SDS011;42236;48.058;10.632;2023-06-10T15:32:38;2.42;;;2.13;;
56329;SDS011;42236;48.058;10.632;2023-06-10T15:35:24;1.80;;;1.70;;
56329;SDS011;42236;48.058;10.632;2023-06-10T15:38:11;1.88;;;1.77;;
56329;SDS011;42236;48.058;10.632;2023-06-10T15:40:57;1.88;;;1.77;;
56329;SDS011;42236;48.058;10.632;2023-06-10T15:43:43;2.20;;;2.10;;
56329;SDS011;42236;48.058;10.632;2023-06-10T15:46:29;2.40;;;1.92;;
56329;SDS011;42236;48.058;10.632;2023-06-10T15:49:15;2.72;;;2.20;;
56329;SDS011;42236;48.058;10.632;2023-06-10T15:52:01;1.85;;;1.75;;
56329;SDS011;42236;48.058;10.632;2023-06-10T15:54:47;2.15;;;1.50;;
56329;SDS011;42236;48.058;10.632;2023-06-10T15:57:32;2.90;;;2.22;;
56329;SDS011;42236;48.058;10.632;2023-06-10T16:00:18;1.90;;;1.80;;
56329;SDS011;42236;48.058;10.632;2023-06-10T16:03:04;4.82;;;1.65;;
56329;SDS011;42236;48.058;10.632;2023-06-10T16:05:50;1.80;;;1.60;;
56329;SDS011;42236;48.058;10.632;2023-06-10T16:08:36;3.47;;;1.70;;
56329;SDS011;42236;48.058;10.632;2023-06-10T16:11:22;1.77;;;1.67;;
56329;SDS011;42236;48.058;10.632;2023-06-10T16:14:08;1.85;;;1.75;;
56329;SDS011;42236;48.058;10.632;2023-06-10T16:16:54;1.42;;;1.33;;
56329;SDS011;42236;48.058;10.632;2023-06-10T16:19:42;3.80;;;1.60;;
56329;SDS011;42236;48.058;10.632;2023-06-10T16:22:28;1.60;;;1.50;;
56329;SDS011;42236;48.058;10.632;2023-06-10T16:25:14;3.92;;;2.28;;
56329;SDS011;42236;48.058;10.632;2023-06-10T16:28:00;2.28;;;1.85;;
56329;SDS011;42236;48.058;10.632;2023-06-10T16:30:47;5.07;;;2.78;;
56329;SDS011;42236;48.058;10.632;2023-06-10T16:33:33;2.28;;;1.98;;
56329;SDS011;42236;48.058;10.632;2023-06-10T16:36:18;2.63;;;2.05;;
56329;SDS011;42236;48.058;10.632;2023-06-10T16:39:04;2.63;;;1.92;;
56329;SDS011;42236;48.058;10.632;2023-06-10T16:41:50;3.65;;;2.00;;
56329;SDS011;42236;48.058;10.632;2023-06-10T16:44:36;3.85;;;2.35;;
56329;SDS011;42236;48.058;10.632;2023-06-10T16:47:21;3.70;;;2.53;;
56329;SDS011;42236;48.058;10.632;2023-06-10T16:50:07;2.90;;;1.70;;
56329;SDS011;42236;48.058;10.632;2023-06-10T16:52:53;1.58;;;1.48;;